createdAt,value
2022-08-18T00:02:09.909Z,20.70
2022-08-18T00:04:48.450Z,20.70
2022-08-18T00:07:23.385Z,20.70
2022-08-18T00:09:51.712Z,20.60
2022-08-18T00:12:26.138Z,20.60
2022-08-18T00:14:55.060Z,20.60
2022-08-18T00:17:23.639Z,20.60
2022-08-18T00:19:51.329Z,20.60
2022-08-18T00:22:23.320Z,20.60
2022-08-18T00:24:54.568Z,20.50
2022-08-18T00:27:28.642Z,20.50
2022-08-18T00:29:58.841Z,20.40
2022-08-18T00:32:55.004Z,20.40
2022-08-18T00:35:31.895Z,20.40
2022-08-18T00:38:01.487Z,20.30
2022-08-18T00:40:37.611Z,20.30
2022-08-18T00:43:08.050Z,20.30
2022-08-18T00:45:41.237Z,20.20
2022-08-18T00:48:11.177Z,20.20
2022-08-18T00:51:01.354Z,20.20
2022-08-18T00:53:45.796Z,20.20
2022-08-18T00:56:22.417Z,20.20
2022-08-18T00:58:57.684Z,20.20
2022-08-18T01:01:30.786Z,20.20
2022-08-18T01:04:35.801Z,20.10
2022-08-18T01:07:14.134Z,20.10
2022-08-18T01:09:41.598Z,20.10
2022-08-18T01:12:27.231Z,20.00
2022-08-18T01:14:58.656Z,20.00
2022-08-18T01:17:45.812Z,20.00
2022-08-18T01:20:37.746Z,20.00
2022-08-18T01:23:15.910Z,19.90
2022-08-18T01:26:04.578Z,19.90
2022-08-18T01:28:41.236Z,19.90
2022-08-18T01:31:10.119Z,19.90
2022-08-18T01:33:43.496Z,19.90
2022-08-18T01:36:21.006Z,19.90
2022-08-18T01:38:52.351Z,19.90
2022-08-18T01:41:29.849Z,19.80
2022-08-18T01:43:59.890Z,19.80
2022-08-18T01:46:30.120Z,19.80
2022-08-18T01:49:01.369Z,19.70
2022-08-18T01:51:38.139Z,19.70
2022-08-18T01:54:10.368Z,19.70
2022-08-18T01:56:38.042Z,19.70
2022-08-18T01:59:14.113Z,19.70
2022-08-18T02:01:50.395Z,19.70
2022-08-18T02:04:35.708Z,19.60
2022-08-18T02:07:08.494Z,19.60
2022-08-18T02:09:37.731Z,19.60
2022-08-18T02:12:07.206Z,19.50
2022-08-18T02:14:36.567Z,19.50
2022-08-18T02:17:08.263Z,19.50
2022-08-18T02:19:39.524Z,19.40
2022-08-18T02:22:09.303Z,19.40
2022-08-18T02:24:37.443Z,19.30
2022-08-18T02:27:05.611Z,19.30
2022-08-18T02:29:33.573Z,19.30
2022-08-18T02:32:00.992Z,19.30
2022-08-18T02:34:28.439Z,19.30
2022-08-18T02:36:56.044Z,19.30
2022-08-18T02:39:23.460Z,19.20
2022-08-18T02:41:51.610Z,19.30
2022-08-18T02:44:19.070Z,19.20
2022-08-18T02:46:46.419Z,19.20
2022-08-18T02:49:13.924Z,19.30
2022-08-18T02:51:44.119Z,19.30
2022-08-18T02:54:11.696Z,19.20
2022-08-18T02:56:41.898Z,19.10
2022-08-18T02:59:15.771Z,19.10
2022-08-18T03:01:47.002Z,19.10
2022-08-18T03:04:17.806Z,19.10
2022-08-18T03:06:45.881Z,19.10
2022-08-18T03:09:15.998Z,19.00
2022-08-18T03:11:44.500Z,19.10
2022-08-18T03:14:13.297Z,19.10
2022-08-18T03:16:53.194Z,19.10
2022-08-18T03:19:28.313Z,19.00
2022-08-18T03:21:58.282Z,19.00
2022-08-18T03:24:28.057Z,19.00
2022-08-18T03:26:59.796Z,19.00
2022-08-18T03:29:31.959Z,19.00
2022-08-18T03:32:02.228Z,19.10
2022-08-18T03:34:32.311Z,19.00
2022-08-18T03:37:00.148Z,18.90
2022-08-18T03:39:28.433Z,18.90
2022-08-18T03:42:01.245Z,18.90
2022-08-18T03:44:36.648Z,19.00
2022-08-18T03:47:07.605Z,19.00
2022-08-18T03:49:37.466Z,18.80
2022-08-18T03:52:09.750Z,18.90
2022-08-18T03:54:38.997Z,18.90
2022-08-18T03:59:56.498Z,18.90
2022-08-18T04:02:23.954Z,18.90
2022-08-18T04:04:51.470Z,18.90
2022-08-18T04:07:19.128Z,19.00
2022-08-18T04:09:47.070Z,19.00
2022-08-18T04:12:17.062Z,19.00
2022-08-18T04:14:49.057Z,19.10
2022-08-18T04:17:25.003Z,19.10
2022-08-18T04:19:55.048Z,19.10
2022-08-18T04:22:24.842Z,19.10
2022-08-18T04:24:52.399Z,19.10
2022-08-18T04:27:21.506Z,19.20
2022-08-18T04:29:49.105Z,19.20
2022-08-18T04:32:16.565Z,19.20
2022-08-18T04:34:44.504Z,19.20
2022-08-18T04:37:15.405Z,19.20
2022-08-18T04:39:43.353Z,19.10
2022-08-18T04:42:11.337Z,19.20
2022-08-18T04:44:38.922Z,19.30
2022-08-18T04:47:09.102Z,19.40
2022-08-18T04:49:37.111Z,19.40
2022-08-18T04:52:40.111Z,19.50
2022-08-18T04:55:10.121Z,19.50
2022-08-18T04:57:37.831Z,19.60
2022-08-18T05:00:08.696Z,19.80
2022-08-18T05:02:36.119Z,19.90
2022-08-18T05:05:05.813Z,19.90
2022-08-18T05:07:33.359Z,20.00
2022-08-18T05:10:00.827Z,20.00
2022-08-18T05:12:28.965Z,20.10
2022-08-18T05:14:59.194Z,20.20
2022-08-18T05:17:31.117Z,20.20
2022-08-18T05:20:01.007Z,20.30
2022-08-18T05:22:31.032Z,20.40
2022-08-18T05:27:45.595Z,20.70
2022-08-18T05:30:15.245Z,20.90
2022-08-18T05:32:49.722Z,21.00
2022-08-18T05:35:32.553Z,21.10
2022-08-18T05:38:48.081Z,21.10
2022-08-18T05:41:26.926Z,21.20
2022-08-18T05:43:55.095Z,21.30
2022-08-18T05:46:32.431Z,21.30
2022-08-18T05:49:00.073Z,21.50
2022-08-18T05:51:34.631Z,21.70
2022-08-18T05:54:23.887Z,21.90
2022-08-18T05:56:54.490Z,22.10
2022-08-18T05:59:43.187Z,22.20
2022-08-18T06:02:13.739Z,22.30
2022-08-18T06:04:47.030Z,22.40
2022-08-18T06:07:27.378Z,22.60
2022-08-18T06:10:02.023Z,22.70
2022-08-18T06:12:47.095Z,22.90
2022-08-18T06:15:25.865Z,23.10
2022-08-18T06:18:14.228Z,23.20
2022-08-18T06:21:05.713Z,23.50
2022-08-18T06:23:41.280Z,23.60
2022-08-18T06:26:40.380Z,23.70
2022-08-18T06:29:36.750Z,23.80
2022-08-18T06:32:16.516Z,23.90
2022-08-18T06:35:09.753Z,24.00
2022-08-18T06:38:06.811Z,24.10
2022-08-18T06:40:34.339Z,24.10
2022-08-18T06:43:02.168Z,24.10
2022-08-18T06:45:39.984Z,24.20
2022-08-18T06:48:16.648Z,24.20
2022-08-18T06:50:58.317Z,24.20
2022-08-18T06:53:54.668Z,24.30
2022-08-18T06:56:37.419Z,24.50
2022-08-18T06:59:15.980Z,24.50
2022-08-18T07:01:45.990Z,24.70
2022-08-18T07:05:00.203Z,24.80
2022-08-18T07:07:39.627Z,24.90
2022-08-18T07:10:18.595Z,25.20
2022-08-18T07:12:45.993Z,25.40
2022-08-18T07:15:13.773Z,25.60
2022-08-18T07:17:44.055Z,25.80
2022-08-18T07:20:24.371Z,26.00
2022-08-18T07:22:54.302Z,26.20
2022-08-18T07:25:29.721Z,26.40
2022-08-18T07:28:01.769Z,26.60
2022-08-18T07:30:33.960Z,26.70
2022-08-18T07:33:15.245Z,26.70
2022-08-18T07:35:49.570Z,26.70
2022-08-18T07:38:42.678Z,26.70
2022-08-18T07:41:20.774Z,26.80
2022-08-18T07:44:13.385Z,26.80
2022-08-18T07:47:10.493Z,26.90
2022-08-18T07:49:46.092Z,26.90
2022-08-18T07:52:44.577Z,27.10
2022-08-18T07:55:36.197Z,27.30
2022-08-18T07:58:03.611Z,27.50
2022-08-18T08:00:58.133Z,27.60
2022-08-18T08:03:32.518Z,27.60
2022-08-18T08:06:18.263Z,27.50
2022-08-18T08:09:36.770Z,27.70
2022-08-18T08:12:20.968Z,27.70
2022-08-18T08:14:52.117Z,28.00
2022-08-18T08:17:34.192Z,28.20
2022-08-18T08:20:16.599Z,28.20
2022-08-18T08:23:17.855Z,28.20
2022-08-18T08:26:01.191Z,28.30
2022-08-18T08:28:42.806Z,28.30
2022-08-18T08:34:17.156Z,28.60
2022-08-18T08:36:48.176Z,28.80
2022-08-18T08:39:20.847Z,28.90
2022-08-18T08:42:30.345Z,29.00
2022-08-18T08:45:01.114Z,28.90
2022-08-18T08:47:44.428Z,29.00
2022-08-18T08:50:20.460Z,29.20
2022-08-18T08:52:59.514Z,29.20
2022-08-18T08:55:31.280Z,29.20
2022-08-18T08:58:08.478Z,29.20
2022-08-18T09:00:38.956Z,29.30
2022-08-18T09:03:30.472Z,29.30
2022-08-18T09:05:58.364Z,29.40
2022-08-18T09:08:46.478Z,29.60
2022-08-18T09:11:27.800Z,29.70
2022-08-18T09:14:24.115Z,29.80
2022-08-18T09:17:13.160Z,30.00
2022-08-18T09:20:03.137Z,30.10
2022-08-18T09:22:36.612Z,30.10
2022-08-18T09:25:11.094Z,30.20
2022-08-18T09:28:10.011Z,30.20
2022-08-18T09:30:55.171Z,30.40
2022-08-18T09:33:42.414Z,30.50
2022-08-18T09:36:40.230Z,30.20
2022-08-18T09:39:54.632Z,30.40
2022-08-18T09:42:49.967Z,30.50
2022-08-18T09:45:33.356Z,30.30
2022-08-18T09:48:28.182Z,30.40
2022-08-18T09:51:23.661Z,30.40
2022-08-18T09:53:54.046Z,30.20
2022-08-18T09:56:55.533Z,30.40
2022-08-18T09:59:32.521Z,30.50
2022-08-18T10:02:32.455Z,30.50
2022-08-18T10:05:21.204Z,30.60
2022-08-18T10:08:21.317Z,30.70
2022-08-18T10:11:02.639Z,30.70
2022-08-18T10:14:07.584Z,30.70
2022-08-18T10:17:21.843Z,30.60
2022-08-18T10:20:26.570Z,30.50
2022-08-18T10:22:56.531Z,30.50
2022-08-18T10:25:41.162Z,30.70
2022-08-18T10:28:11.896Z,30.70
2022-08-18T10:30:57.462Z,30.80
2022-08-18T10:33:59.230Z,30.80
2022-08-18T10:36:33.746Z,31.10
2022-08-18T10:39:05.767Z,31.20
2022-08-18T10:41:36.514Z,31.10
2022-08-18T10:44:28.599Z,31.00
2022-08-18T10:46:59.845Z,31.40
2022-08-18T10:49:32.056Z,31.60
2022-08-18T10:52:12.519Z,31.60
2022-08-18T10:55:06.937Z,31.70
2022-08-18T10:58:10.507Z,31.80
2022-08-18T11:01:05.595Z,31.90
2022-08-18T11:04:11.656Z,32.00
2022-08-18T11:06:47.489Z,32.00
2022-08-18T11:09:26.832Z,32.00
2022-08-18T11:11:59.237Z,32.10
2022-08-18T11:14:51.102Z,32.30
2022-08-18T11:17:24.741Z,32.40
2022-08-18T11:19:55.358Z,32.60
2022-08-18T11:22:54.336Z,32.70
2022-08-18T11:25:33.481Z,32.70
2022-08-18T11:28:02.515Z,32.80
2022-08-18T11:30:37.060Z,32.80
2022-08-18T11:33:05.760Z,32.90
2022-08-18T11:35:51.937Z,33.20
2022-08-18T11:38:23.540Z,33.10
2022-08-18T11:41:19.815Z,33.20
2022-08-18T11:43:50.491Z,33.30
2022-08-18T11:49:26.303Z,33.40
2022-08-18T11:52:25.024Z,33.50
2022-08-18T11:55:16.794Z,33.50
2022-08-18T11:57:56.251Z,33.40
2022-08-18T12:00:43.182Z,33.50
2022-08-18T12:03:28.461Z,33.50
2022-08-18T12:06:19.299Z,33.70
2022-08-18T12:09:07.578Z,33.70
2022-08-18T12:11:48.556Z,33.80
2022-08-18T12:17:09.433Z,33.70
2022-08-18T12:19:38.583Z,33.80
2022-08-18T12:22:16.251Z,33.90
2022-08-18T12:24:46.606Z,33.90
2022-08-18T12:30:08.551Z,33.80
2022-08-18T12:35:31.894Z,33.80
2022-08-18T12:38:11.213Z,33.90
2022-08-18T12:40:41.904Z,33.80
2022-08-18T12:43:09.362Z,33.80
2022-08-18T12:45:38.932Z,33.90
2022-08-18T12:48:06.731Z,34.00
2022-08-18T12:50:50.225Z,34.00
2022-08-18T12:56:26.555Z,34.10
2022-08-18T12:58:55.544Z,34.10
2022-08-18T13:01:25.056Z,34.00
2022-08-18T13:04:11.371Z,34.00
2022-08-18T13:07:00.577Z,34.10
2022-08-18T13:09:52.682Z,34.00
2022-08-18T13:12:21.165Z,34.00
2022-08-18T13:14:50.750Z,34.20
2022-08-18T13:17:30.159Z,34.20
2022-08-18T13:20:09.357Z,34.20
2022-08-18T13:22:40.253Z,34.30
2022-08-18T13:25:33.299Z,34.40
2022-08-18T13:28:02.625Z,34.40
2022-08-18T13:30:32.317Z,34.30
2022-08-18T13:33:05.512Z,34.40
2022-08-18T13:35:52.399Z,34.30
2022-08-18T13:38:27.313Z,34.30
2022-08-18T13:40:59.301Z,34.30
2022-08-18T13:43:39.224Z,34.10
2022-08-18T13:46:09.110Z,34.10
2022-08-18T13:48:38.533Z,34.20
2022-08-18T13:51:11.089Z,34.20
2022-08-18T13:53:51.134Z,34.10
2022-08-18T13:56:31.291Z,34.00
2022-08-18T13:58:59.946Z,34.00
2022-08-18T14:01:50.088Z,34.00
2022-08-18T14:04:20.657Z,33.90
2022-08-18T14:06:56.135Z,33.70
2022-08-18T14:09:27.936Z,33.60
2022-08-18T14:12:21.430Z,33.60
2022-08-18T14:14:53.221Z,33.60
2022-08-18T14:17:22.204Z,33.60
2022-08-18T14:20:21.587Z,33.50
2022-08-18T14:23:13.989Z,33.50
2022-08-18T14:26:08.201Z,33.30
2022-08-18T14:28:35.771Z,33.20
2022-08-18T14:31:07.018Z,33.10
2022-08-18T14:33:51.445Z,33.10
2022-08-18T14:36:20.144Z,33.10
2022-08-18T14:38:59.125Z,33.10
2022-08-18T14:41:27.178Z,33.00
2022-08-18T14:44:12.343Z,32.90
2022-08-18T14:46:54.091Z,32.90
2022-08-18T14:49:28.790Z,32.90
2022-08-18T14:52:00.638Z,32.90
2022-08-18T14:54:31.228Z,32.90
2022-08-18T14:57:04.928Z,32.90
2022-08-18T14:59:37.625Z,32.90
2022-08-18T15:02:13.181Z,32.80
2022-08-18T15:04:56.060Z,32.80
2022-08-18T15:07:24.483Z,32.80
2022-08-18T15:09:51.947Z,32.90
2022-08-18T15:12:40.363Z,33.00
2022-08-18T15:15:12.531Z,33.10
2022-08-18T15:17:50.262Z,33.00
2022-08-18T15:20:28.680Z,33.00
2022-08-18T15:23:24.715Z,33.00
2022-08-18T15:25:52.664Z,33.00
2022-08-18T15:28:27.086Z,32.90
2022-08-18T15:33:42.271Z,32.80
2022-08-18T15:36:10.366Z,32.70
2022-08-18T15:38:44.109Z,32.70
2022-08-18T15:41:29.225Z,32.60
2022-08-18T15:43:59.108Z,32.50
2022-08-18T15:46:27.115Z,32.50
2022-08-18T15:48:55.406Z,32.40
2022-08-18T15:51:22.922Z,32.40
2022-08-18T15:53:50.990Z,32.40
2022-08-18T15:56:23.553Z,32.40
2022-08-18T15:58:53.568Z,32.30
2022-08-18T16:01:32.524Z,32.30
2022-08-18T16:04:01.279Z,32.20
2022-08-18T16:06:32.219Z,32.10
2022-08-18T16:09:04.137Z,32.00
2022-08-18T16:11:32.677Z,31.80
2022-08-18T16:14:00.125Z,31.50
2022-08-18T16:16:29.326Z,31.20
2022-08-18T16:19:05.162Z,31.00
2022-08-18T16:21:33.128Z,30.60
2022-08-18T16:24:00.485Z,30.40
2022-08-18T16:26:27.919Z,30.20
2022-08-18T16:28:55.511Z,30.10
2022-08-18T16:31:28.451Z,29.80
2022-08-18T16:33:57.304Z,29.70
2022-08-18T16:36:26.418Z,29.50
2022-08-18T16:38:58.606Z,29.40
2022-08-18T16:41:26.745Z,29.20
2022-08-18T16:43:54.507Z,29.00
2022-08-18T16:46:26.059Z,28.90
2022-08-18T16:48:54.853Z,28.70
2022-08-18T16:51:24.411Z,28.50
2022-08-18T16:53:54.956Z,28.30
2022-08-18T16:56:25.999Z,28.20
2022-08-18T16:59:13.028Z,28.00
2022-08-18T17:02:00.210Z,27.90
2022-08-18T17:04:33.609Z,27.50
2022-08-18T17:07:05.148Z,27.20
2022-08-18T17:09:33.860Z,27.00
2022-08-18T17:12:02.690Z,26.90
2022-08-18T17:14:31.571Z,26.80
2022-08-18T17:17:00.265Z,26.60
2022-08-18T17:19:33.575Z,26.50
2022-08-18T17:22:06.358Z,26.30
2022-08-18T17:24:34.043Z,26.30
2022-08-18T17:27:26.191Z,26.20
2022-08-18T17:30:16.631Z,26.20
2022-08-18T17:32:57.796Z,26.00
2022-08-18T17:35:35.005Z,26.00
2022-08-18T17:38:24.951Z,25.90
2022-08-18T17:40:55.043Z,25.80
2022-08-18T17:43:25.047Z,25.80
2022-08-18T17:46:06.768Z,25.70
2022-08-18T17:48:49.466Z,25.60
2022-08-18T17:51:35.189Z,25.60
2022-08-18T17:54:37.005Z,25.60
2022-08-18T17:57:28.851Z,25.50
2022-08-18T18:00:10.105Z,25.40
2022-08-18T18:02:45.054Z,25.30
2022-08-18T18:05:15.384Z,25.30
2022-08-18T18:07:50.361Z,25.20
2022-08-18T18:13:32.793Z,25.20
2022-08-18T18:16:20.928Z,25.10
2022-08-18T18:19:03.116Z,25.10
2022-08-18T18:22:00.372Z,25.00
2022-08-18T18:24:32.698Z,24.90
2022-08-18T18:27:00.588Z,24.90
2022-08-18T18:29:33.329Z,24.80
2022-08-18T18:32:05.609Z,24.80
2022-08-18T18:34:39.920Z,24.70
2022-08-18T18:37:26.135Z,24.60
2022-08-18T18:40:08.301Z,24.50
2022-08-18T18:42:36.602Z,24.50
2022-08-18T18:45:10.677Z,24.50
2022-08-18T18:47:45.160Z,24.40
2022-08-18T18:50:53.100Z,24.30
2022-08-18T18:53:26.561Z,24.30
2022-08-18T18:56:11.464Z,24.30
2022-08-18T18:58:58.935Z,24.20
2022-08-18T19:01:51.255Z,24.10
2022-08-18T19:04:49.209Z,24.10
2022-08-18T19:07:28.153Z,24.00
2022-08-18T19:10:09.424Z,24.00
2022-08-18T19:12:56.732Z,24.00
2022-08-18T19:15:27.076Z,23.90
2022-08-18T19:18:00.815Z,23.80
2022-08-18T19:22:01.917Z,23.80
2022-08-18T19:23:53.224Z,23.70
2022-08-18T19:26:27.476Z,23.70
2022-08-18T19:29:13.392Z,23.70
2022-08-18T19:32:12.389Z,23.60
2022-08-18T19:34:52.414Z,23.50
2022-08-18T19:37:40.335Z,23.50
2022-08-18T19:40:28.789Z,23.50
2022-08-18T19:43:33.198Z,23.40
2022-08-18T19:46:12.477Z,23.30
2022-08-18T19:48:51.498Z,23.30
2022-08-18T19:51:40.275Z,23.30
2022-08-18T19:54:07.767Z,23.20
2022-08-18T19:56:55.556Z,23.20
2022-08-18T19:59:48.586Z,23.10
2022-08-18T20:02:35.250Z,23.00
2022-08-18T20:05:08.811Z,23.00
2022-08-18T20:08:10.092Z,22.80
2022-08-18T20:10:58.706Z,22.80
2022-08-18T20:13:38.410Z,22.80
2022-08-18T20:16:10.845Z,22.70
2022-08-18T20:18:44.644Z,22.80
2022-08-18T20:21:15.203Z,22.60
2022-08-18T20:24:07.229Z,22.60
2022-08-18T20:26:40.226Z,22.60
2022-08-18T20:29:38.817Z,22.50
2022-08-18T20:32:28.441Z,22.50
2022-08-18T20:35:35.805Z,22.40
2022-08-18T20:38:36.511Z,22.30
2022-08-18T20:41:28.756Z,22.30
2022-08-18T20:44:14.154Z,22.20
2022-08-18T20:47:05.502Z,22.20
2022-08-18T20:49:50.936Z,22.30
2022-08-18T20:52:38.482Z,22.20
2022-08-18T20:55:26.860Z,22.10
2022-08-18T20:58:08.112Z,22.10
2022-08-18T21:00:41.538Z,22.00
2022-08-18T21:03:14.692Z,21.90
2022-08-18T21:05:45.545Z,21.90
2022-08-18T21:08:19.818Z,21.90
2022-08-18T21:11:10.084Z,21.80
2022-08-18T21:13:51.351Z,21.80
2022-08-18T21:16:38.287Z,21.90
2022-08-18T21:19:19.554Z,21.90
2022-08-18T21:22:04.593Z,21.90
2022-08-18T21:24:39.357Z,21.80
2022-08-18T21:27:26.449Z,21.80
2022-08-18T21:29:57.518Z,21.80
2022-08-18T21:32:36.567Z,21.70
2022-08-18T21:35:32.182Z,21.70
2022-08-18T21:38:04.160Z,21.60
2022-08-18T21:40:45.983Z,21.60
2022-08-18T21:43:32.817Z,21.60
2022-08-18T21:46:01.519Z,21.50
2022-08-18T21:48:30.362Z,21.60
2022-08-18T21:51:01.287Z,21.40
2022-08-18T21:53:34.097Z,21.40
2022-08-18T21:56:02.081Z,21.40
2022-08-18T21:58:45.446Z,21.40
2022-08-18T22:01:29.817Z,21.40
2022-08-18T22:04:30.340Z,21.30
2022-08-18T22:07:07.363Z,21.30
2022-08-18T22:10:44.408Z,21.20
2022-08-18T22:13:46.281Z,21.20
2022-08-18T22:16:30.380Z,21.10
2022-08-18T22:19:26.473Z,21.20
2022-08-18T22:22:24.418Z,21.20
2022-08-18T22:24:58.367Z,21.20
2022-08-18T22:27:27.055Z,21.20
2022-08-18T22:30:05.327Z,21.10
2022-08-18T22:32:37.722Z,21.10
2022-08-18T22:35:08.830Z,20.90
2022-08-18T22:37:50.139Z,20.90
2022-08-18T22:40:21.498Z,20.80
2022-08-18T22:42:49.837Z,20.80
2022-08-18T22:45:19.564Z,20.70
2022-08-18T22:47:47.004Z,20.70
2022-08-18T22:50:17.982Z,20.70
2022-08-18T22:52:49.660Z,20.70
2022-08-18T22:55:21.947Z,20.80
2022-08-18T22:58:01.130Z,20.80
2022-08-18T23:00:30.026Z,20.70
2022-08-18T23:02:57.673Z,20.60
2022-08-18T23:05:25.244Z,20.60
2022-08-18T23:07:52.942Z,20.60
2022-08-18T23:10:21.339Z,20.60
2022-08-18T23:12:49.428Z,20.60
2022-08-18T23:15:19.058Z,20.60
2022-08-18T23:17:46.562Z,20.50
2022-08-18T23:20:19.269Z,20.60
2022-08-18T23:22:48.013Z,20.60
2022-08-18T23:25:16.055Z,20.60
2022-08-18T23:27:43.780Z,20.60
2022-08-18T23:30:12.632Z,20.60
2022-08-18T23:32:40.016Z,20.60
2022-08-18T23:35:07.713Z,20.60
2022-08-18T23:37:35.083Z,20.60
2022-08-18T23:40:02.598Z,20.60
2022-08-18T23:42:31.611Z,20.50
2022-08-18T23:45:03.141Z,20.30
2022-08-18T23:47:31.015Z,20.40
2022-08-18T23:49:58.466Z,20.30
2022-08-18T23:52:25.854Z,20.30
2022-08-18T23:54:53.372Z,20.40
2022-08-18T23:57:20.784Z,20.40
2022-08-18T23:59:48.176Z,20.30
